sensor_id;sensor_type;location;lat;lon;timestamp;P1;durP1;ratioP1;P2;durP2;ratioP2
18100;SDS011;9177;49.156;8.142;2022-09-12T00:01:37;1.65;;;1.52;;
18100;SDS011;9177;49.156;8.142;2022-09-12T00:04:04;1.95;;;1.77;;
18100;SDS011;9177;49.156;8.142;2022-09-12T00:06:33;1.73;;;1.63;;
18100;SDS011;9177;49.156;8.142;2022-09-12T00:09:02;2.15;;;1.63;;
18100;SDS011;9177;49.156;8.142;2022-09-12T00:11:33;2.20;;;1.50;;
18100;SDS011;9177;49.156;8.142;2022-09-12T00:14:01;1.50;;;1.40;;
18100;SDS011;9177;49.156;8.142;2022-09-12T00:16:31;1.60;;;1.50;;
18100;SDS011;9177;49.156;8.142;2022-09-12T00:19:00;1.70;;;1.50;;
18100;SDS011;9177;49.156;8.142;2022-09-12T00:21:27;1.73;;;1.63;;
18100;SDS011;9177;49.156;8.142;2022-09-12T00:23:59;1.45;;;1.35;;
18100;SDS011;9177;49.156;8.142;2022-09-12T00:26:26;1.92;;;1.83;;
18100;SDS011;9177;49.156;8.142;2022-09-12T00:28:53;2.67;;;1.50;;
18100;SDS011;9177;49.156;8.142;2022-09-12T00:31:21;1.65;;;1.55;;
18100;SDS011;9177;49.156;8.142;2022-09-12T00:33:50;1.30;;;1.30;;
18100;SDS011;9177;49.156;8.142;2022-09-12T00:36:18;1.48;;;1.38;;
18100;SDS011;9177;49.156;8.142;2022-09-12T00:38:46;1.40;;;1.30;;
18100;SDS011;9177;49.156;8.142;2022-09-12T00:41:16;1.60;;;1.50;;
18100;SDS011;9177;49.156;8.142;2022-09-12T00:43:45;1.58;;;1.48;;
18100;SDS011;9177;49.156;8.142;2022-09-12T00:46:15;1.80;;;1.50;;
18100;SDS011;9177;49.156;8.142;2022-09-12T00:48:53;2.10;;;1.50;;
18100;SDS011;9177;49.156;8.142;2022-09-12T00:51:23;1.35;;;1.25;;
18100;SDS011;9177;49.156;8.142;2022-09-12T00:53:52;1.40;;;1.30;;
18100;SDS011;9177;49.156;8.142;2022-09-12T00:56:23;1.60;;;1.50;;
18100;SDS011;9177;49.156;8.142;2022-09-12T00:58:51;1.70;;;1.60;;
18100;SDS011;9177;49.156;8.142;2022-09-12T01:01:21;1.83;;;1.73;;
18100;SDS011;9177;49.156;8.142;2022-09-12T01:03:48;1.80;;;1.70;;
18100;SDS011;9177;49.156;8.142;2022-09-12T01:06:17;1.70;;;1.30;;
18100;SDS011;9177;49.156;8.142;2022-09-12T01:08:47;1.42;;;1.33;;
18100;SDS011;9177;49.156;8.142;2022-09-12T01:11:15;1.83;;;1.55;;
18100;SDS011;9177;49.156;8.142;2022-09-12T01:13:44;2.10;;;1.60;;
18100;SDS011;9177;49.156;8.142;2022-09-12T01:16:11;1.90;;;1.80;;
18100;SDS011;9177;49.156;8.142;2022-09-12T01:18:42;1.88;;;1.40;;
18100;SDS011;9177;49.156;8.142;2022-09-12T01:21:18;1.38;;;1.27;;
18100;SDS011;9177;49.156;8.142;2022-09-12T01:24:08;2.00;;;1.77;;
18100;SDS011;9177;49.156;8.142;2022-09-12T01:27:01;1.48;;;1.38;;
18100;SDS011;9177;49.156;8.142;2022-09-12T01:32:57;1.70;;;1.60;;
18100;SDS011;9177;49.156;8.142;2022-09-12T01:35:38;1.55;;;1.45;;
18100;SDS011;9177;49.156;8.142;2022-09-12T01:38:12;1.50;;;1.40;;
18100;SDS011;9177;49.156;8.142;2022-09-12T01:40:56;1.83;;;1.60;;
18100;SDS011;9177;49.156;8.142;2022-09-12T01:43:28;1.77;;;1.67;;
18100;SDS011;9177;49.156;8.142;2022-09-12T01:46:00;1.45;;;1.35;;
18100;SDS011;9177;49.156;8.142;2022-09-12T01:48:34;1.88;;;1.70;;
18100;SDS011;9177;49.156;8.142;2022-09-12T01:51:06;1.50;;;1.40;;
18100;SDS011;9177;49.156;8.142;2022-09-12T01:53:38;1.67;;;1.58;;
18100;SDS011;9177;49.156;8.142;2022-09-12T01:56:09;1.60;;;1.50;;
18100;SDS011;9177;49.156;8.142;2022-09-12T01:58:41;1.63;;;1.38;;
18100;SDS011;9177;49.156;8.142;2022-09-12T02:01:11;2.55;;;1.50;;
18100;SDS011;9177;49.156;8.142;2022-09-12T02:03:43;1.50;;;1.40;;
18100;SDS011;9177;49.156;8.142;2022-09-12T02:06:15;1.67;;;1.58;;
18100;SDS011;9177;49.156;8.142;2022-09-12T02:08:45;2.08;;;1.48;;
18100;SDS011;9177;49.156;8.142;2022-09-12T02:11:16;1.58;;;1.48;;
18100;SDS011;9177;49.156;8.142;2022-09-12T02:13:46;2.53;;;1.40;;
18100;SDS011;9177;49.156;8.142;2022-09-12T02:16:20;1.70;;;1.60;;
18100;SDS011;9177;49.156;8.142;2022-09-12T02:18:53;1.40;;;1.40;;
18100;SDS011;9177;49.156;8.142;2022-09-12T02:21:24;1.85;;;1.70;;
18100;SDS011;9177;49.156;8.142;2022-09-12T02:24:02;1.35;;;1.30;;
18100;SDS011;9177;49.156;8.142;2022-09-12T02:26:35;1.80;;;1.70;;
18100;SDS011;9177;49.156;8.142;2022-09-12T02:29:06;2.03;;;1.70;;
18100;SDS011;9177;49.156;8.142;2022-09-12T02:31:36;1.73;;;1.63;;
18100;SDS011;9177;49.156;8.142;2022-09-12T02:34:12;1.65;;;1.55;;
18100;SDS011;9177;49.156;8.142;2022-09-12T02:36:48;1.75;;;1.65;;
18100;SDS011;9177;49.156;8.142;2022-09-12T02:39:23;1.67;;;1.58;;
18100;SDS011;9177;49.156;8.142;2022-09-12T02:41:50;1.27;;;1.20;;
18100;SDS011;9177;49.156;8.142;2022-09-12T02:44:18;1.75;;;1.65;;
18100;SDS011;9177;49.156;8.142;2022-09-12T02:46:48;1.80;;;1.70;;
18100;SDS011;9177;49.156;8.142;2022-09-12T02:49:20;1.52;;;1.42;;
18100;SDS011;9177;49.156;8.142;2022-09-12T02:51:47;1.70;;;1.60;;
18100;SDS011;9177;49.156;8.142;2022-09-12T02:54:14;1.60;;;1.50;;
18100;SDS011;9177;49.156;8.142;2022-09-12T02:56:43;1.73;;;1.52;;
18100;SDS011;9177;49.156;8.142;2022-09-12T02:59:13;1.73;;;1.63;;
18100;SDS011;9177;49.156;8.142;2022-09-12T03:01:54;1.80;;;1.70;;
18100;SDS011;9177;49.156;8.142;2022-09-12T03:04:34;1.75;;;1.65;;
18100;SDS011;9177;49.156;8.142;2022-09-12T03:07:13;2.17;;;2.03;;
18100;SDS011;9177;49.156;8.142;2022-09-12T03:09:43;1.55;;;1.50;;
18100;SDS011;9177;49.156;8.142;2022-09-12T03:12:25;1.80;;;1.70;;
18100;SDS011;9177;49.156;8.142;2022-09-12T03:15:10;2.42;;;1.63;;
18100;SDS011;9177;49.156;8.142;2022-09-12T03:17:52;1.92;;;1.70;;
18100;SDS011;9177;49.156;8.142;2022-09-12T03:20:32;1.30;;;1.23;;
18100;SDS011;9177;49.156;8.142;2022-09-12T03:23:09;1.52;;;1.30;;
18100;SDS011;9177;49.156;8.142;2022-09-12T03:25:44;1.67;;;1.50;;
18100;SDS011;9177;49.156;8.142;2022-09-12T03:28:16;2.10;;;1.85;;
18100;SDS011;9177;49.156;8.142;2022-09-12T03:30:45;1.67;;;1.58;;
18100;SDS011;9177;49.156;8.142;2022-09-12T03:33:15;1.88;;;1.77;;
18100;SDS011;9177;49.156;8.142;2022-09-12T03:35:45;2.13;;;1.60;;
18100;SDS011;9177;49.156;8.142;2022-09-12T03:38:13;1.65;;;1.55;;
18100;SDS011;9177;49.156;8.142;2022-09-12T03:40:40;1.55;;;1.45;;
18100;SDS011;9177;49.156;8.142;2022-09-12T03:43:08;1.75;;;1.65;;
18100;SDS011;9177;49.156;8.142;2022-09-12T03:45:35;2.50;;;2.00;;
18100;SDS011;9177;49.156;8.142;2022-09-12T03:48:03;1.80;;;1.70;;
18100;SDS011;9177;49.156;8.142;2022-09-12T03:50:30;3.08;;;1.73;;
18100;SDS011;9177;49.156;8.142;2022-09-12T03:52:59;1.83;;;1.73;;
18100;SDS011;9177;49.156;8.142;2022-09-12T03:55:26;1.67;;;1.58;;
18100;SDS011;9177;49.156;8.142;2022-09-12T03:57:53;1.73;;;1.63;;
18100;SDS011;9177;49.156;8.142;2022-09-12T04:00:20;1.55;;;1.45;;
18100;SDS011;9177;49.156;8.142;2022-09-12T04:02:47;1.75;;;1.65;;
18100;SDS011;9177;49.156;8.142;2022-09-12T04:05:18;1.92;;;1.83;;
18100;SDS011;9177;49.156;8.142;2022-09-12T04:07:45;2.55;;;1.80;;
18100;SDS011;9177;49.156;8.142;2022-09-12T04:10:13;2.10;;;1.90;;
18100;SDS011;9177;49.156;8.142;2022-09-12T04:12:45;2.20;;;2.10;;
18100;SDS011;9177;49.156;8.142;2022-09-12T04:15:12;1.83;;;1.73;;
18100;SDS011;9177;49.156;8.142;2022-09-12T04:17:39;1.85;;;1.75;;
18100;SDS011;9177;49.156;8.142;2022-09-12T04:20:06;1.85;;;1.75;;
18100;SDS011;9177;49.156;8.142;2022-09-12T04:22:36;1.75;;;1.65;;
18100;SDS011;9177;49.156;8.142;2022-09-12T04:25:03;1.92;;;1.83;;
18100;SDS011;9177;49.156;8.142;2022-09-12T04:27:32;2.20;;;2.00;;
18100;SDS011;9177;49.156;8.142;2022-09-12T04:29:59;1.90;;;1.80;;
18100;SDS011;9177;49.156;8.142;2022-09-12T04:32:27;1.80;;;1.70;;
18100;SDS011;9177;49.156;8.142;2022-09-12T04:34:55;2.65;;;2.00;;
18100;SDS011;9177;49.156;8.142;2022-09-12T04:37:22;1.88;;;1.77;;
18100;SDS011;9177;49.156;8.142;2022-09-12T04:39:49;2.10;;;1.90;;
18100;SDS011;9177;49.156;8.142;2022-09-12T04:42:20;2.38;;;1.83;;
18100;SDS011;9177;49.156;8.142;2022-09-12T04:44:48;1.90;;;1.80;;
18100;SDS011;9177;49.156;8.142;2022-09-12T04:47:16;1.98;;;1.77;;
18100;SDS011;9177;49.156;8.142;2022-09-12T04:49:43;1.98;;;1.88;;
18100;SDS011;9177;49.156;8.142;2022-09-12T04:52:09;1.98;;;1.88;;
18100;SDS011;9177;49.156;8.142;2022-09-12T04:54:37;1.65;;;1.55;;
18100;SDS011;9177;49.156;8.142;2022-09-12T04:57:03;2.35;;;2.15;;
18100;SDS011;9177;49.156;8.142;2022-09-12T04:59:30;2.05;;;1.95;;
18100;SDS011;9177;49.156;8.142;2022-09-12T05:01:59;1.95;;;1.85;;
18100;SDS011;9177;49.156;8.142;2022-09-12T05:04:25;2.15;;;2.05;;
18100;SDS011;9177;49.156;8.142;2022-09-12T05:06:52;1.83;;;1.73;;
18100;SDS011;9177;49.156;8.142;2022-09-12T05:09:19;1.77;;;1.67;;
18100;SDS011;9177;49.156;8.142;2022-09-12T05:11:46;1.77;;;1.67;;
18100;SDS011;9177;49.156;8.142;2022-09-12T05:14:13;1.70;;;1.60;;
18100;SDS011;9177;49.156;8.142;2022-09-12T05:16:40;3.30;;;2.13;;
18100;SDS011;9177;49.156;8.142;2022-09-12T05:19:09;1.88;;;1.77;;
18100;SDS011;9177;49.156;8.142;2022-09-12T05:21:37;2.30;;;2.20;;
18100;SDS011;9177;49.156;8.142;2022-09-12T05:24:04;1.90;;;1.80;;
18100;SDS011;9177;49.156;8.142;2022-09-12T05:26:31;2.33;;;2.13;;
18100;SDS011;9177;49.156;8.142;2022-09-12T05:28:58;1.90;;;1.80;;
18100;SDS011;9177;49.156;8.142;2022-09-12T05:31:26;2.25;;;2.15;;
18100;SDS011;9177;49.156;8.142;2022-09-12T05:33:54;2.40;;;2.30;;
18100;SDS011;9177;49.156;8.142;2022-09-12T05:36:23;2.20;;;2.10;;
18100;SDS011;9177;49.156;8.142;2022-09-12T05:38:51;2.20;;;2.10;;
18100;SDS011;9177;49.156;8.142;2022-09-12T05:41:19;2.00;;;1.90;;
18100;SDS011;9177;49.156;8.142;2022-09-12T05:43:50;2.95;;;2.28;;
18100;SDS011;9177;49.156;8.142;2022-09-12T05:46:18;2.50;;;2.30;;
18100;SDS011;9177;49.156;8.142;2022-09-12T05:48:47;2.40;;;2.30;;
18100;SDS011;9177;49.156;8.142;2022-09-12T05:51:16;2.42;;;2.22;;
18100;SDS011;9177;49.156;8.142;2022-09-12T05:53:46;2.78;;;2.58;;
18100;SDS011;9177;49.156;8.142;2022-09-12T05:56:16;2.35;;;2.15;;
18100;SDS011;9177;49.156;8.142;2022-09-12T05:58:45;2.75;;;2.55;;
18100;SDS011;9177;49.156;8.142;2022-09-12T06:01:14;3.00;;;2.25;;
18100;SDS011;9177;49.156;8.142;2022-09-12T06:03:43;2.42;;;2.20;;
18100;SDS011;9177;49.156;8.142;2022-09-12T06:06:11;2.45;;;2.35;;
18100;SDS011;9177;49.156;8.142;2022-09-12T06:08:40;2.67;;;2.47;;
18100;SDS011;9177;49.156;8.142;2022-09-12T06:11:11;2.38;;;2.20;;
18100;SDS011;9177;49.156;8.142;2022-09-12T06:13:40;2.15;;;2.05;;
18100;SDS011;9177;49.156;8.142;2022-09-12T06:16:08;2.30;;;2.15;;
18100;SDS011;9177;49.156;8.142;2022-09-12T06:18:36;2.15;;;2.03;;
18100;SDS011;9177;49.156;8.142;2022-09-12T06:21:05;2.70;;;2.50;;
18100;SDS011;9177;49.156;8.142;2022-09-12T06:23:33;2.67;;;2.47;;
18100;SDS011;9177;49.156;8.142;2022-09-12T06:26:00;2.25;;;2.15;;
18100;SDS011;9177;49.156;8.142;2022-09-12T06:28:30;2.30;;;2.10;;
18100;SDS011;9177;49.156;8.142;2022-09-12T06:31:00;2.40;;;2.30;;
18100;SDS011;9177;49.156;8.142;2022-09-12T06:33:29;2.60;;;2.40;;
18100;SDS011;9177;49.156;8.142;2022-09-12T06:36:00;2.50;;;2.30;;
18100;SDS011;9177;49.156;8.142;2022-09-12T06:38:29;2.58;;;2.38;;
18100;SDS011;9177;49.156;8.142;2022-09-12T06:40:56;2.45;;;2.17;;
18100;SDS011;9177;49.156;8.142;2022-09-12T06:43:24;2.75;;;2.55;;
18100;SDS011;9177;49.156;8.142;2022-09-12T06:45:52;2.80;;;2.65;;
18100;SDS011;9177;49.156;8.142;2022-09-12T06:48:20;2.67;;;2.47;;
18100;SDS011;9177;49.156;8.142;2022-09-12T06:50:53;2.60;;;2.50;;
18100;SDS011;9177;49.156;8.142;2022-09-12T06:53:22;2.65;;;2.45;;
18100;SDS011;9177;49.156;8.142;2022-09-12T06:55:53;2.83;;;2.55;;
18100;SDS011;9177;49.156;8.142;2022-09-12T06:58:22;2.65;;;2.42;;
18100;SDS011;9177;49.156;8.142;2022-09-12T07:00:49;2.60;;;2.40;;
18100;SDS011;9177;49.156;8.142;2022-09-12T07:03:17;2.40;;;2.20;;
18100;SDS011;9177;49.156;8.142;2022-09-12T07:05:44;2.38;;;2.28;;
18100;SDS011;9177;49.156;8.142;2022-09-12T07:08:11;2.22;;;2.13;;
18100;SDS011;9177;49.156;8.142;2022-09-12T07:10:38;2.60;;;2.40;;
18100;SDS011;9177;49.156;8.142;2022-09-12T07:13:05;2.83;;;2.63;;
18100;SDS011;9177;49.156;8.142;2022-09-12T07:15:33;2.40;;;2.20;;
18100;SDS011;9177;49.156;8.142;2022-09-12T07:18:01;2.47;;;2.38;;
18100;SDS011;9177;49.156;8.142;2022-09-12T07:20:29;2.55;;;2.35;;
18100;SDS011;9177;49.156;8.142;2022-09-12T07:22:57;2.10;;;2.00;;
18100;SDS011;9177;49.156;8.142;2022-09-12T07:25:25;2.33;;;2.22;;
18100;SDS011;9177;49.156;8.142;2022-09-12T07:27:52;2.53;;;2.38;;
18100;SDS011;9177;49.156;8.142;2022-09-12T07:30:19;2.60;;;2.47;;
18100;SDS011;9177;49.156;8.142;2022-09-12T07:32:46;2.70;;;2.50;;
18100;SDS011;9177;49.156;8.142;2022-09-12T07:35:17;2.50;;;2.30;;
18100;SDS011;9177;49.156;8.142;2022-09-12T07:37:46;2.92;;;2.72;;
18100;SDS011;9177;49.156;8.142;2022-09-12T07:40:13;3.00;;;2.80;;
18100;SDS011;9177;49.156;8.142;2022-09-12T07:42:40;2.65;;;2.45;;
18100;SDS011;9177;49.156;8.142;2022-09-12T07:45:07;2.78;;;2.58;;
18100;SDS011;9177;49.156;8.142;2022-09-12T07:47:35;2.90;;;2.70;;
18100;SDS011;9177;49.156;8.142;2022-09-12T07:50:02;2.60;;;2.40;;
18100;SDS011;9177;49.156;8.142;2022-09-12T07:52:29;3.88;;;2.38;;
18100;SDS011;9177;49.156;8.142;2022-09-12T07:54:57;2.30;;;2.20;;
18100;SDS011;9177;49.156;8.142;2022-09-12T07:57:24;2.80;;;2.60;;
18100;SDS011;9177;49.156;8.142;2022-09-12T07:59:51;2.38;;;2.28;;
18100;SDS011;9177;49.156;8.142;2022-09-12T08:02:18;2.50;;;2.30;;
18100;SDS011;9177;49.156;8.142;2022-09-12T08:04:45;2.67;;;2.53;;
18100;SDS011;9177;49.156;8.142;2022-09-12T08:07:18;2.97;;;2.78;;
18100;SDS011;9177;49.156;8.142;2022-09-12T08:09:44;2.75;;;2.28;;
18100;SDS011;9177;49.156;8.142;2022-09-12T08:12:13;2.70;;;2.50;;
18100;SDS011;9177;49.156;8.142;2022-09-12T08:14:41;2.72;;;2.53;;
18100;SDS011;9177;49.156;8.142;2022-09-12T08:17:08;2.58;;;2.38;;
18100;SDS011;9177;49.156;8.142;2022-09-12T08:19:35;2.20;;;2.10;;
18100;SDS011;9177;49.156;8.142;2022-09-12T08:22:03;2.80;;;2.60;;
18100;SDS011;9177;49.156;8.142;2022-09-12T08:24:30;2.53;;;2.40;;
18100;SDS011;9177;49.156;8.142;2022-09-12T08:26:59;2.55;;;2.40;;
18100;SDS011;9177;49.156;8.142;2022-09-12T08:29:34;2.70;;;2.50;;
18100;SDS011;9177;49.156;8.142;2022-09-12T08:32:01;2.50;;;2.30;;
18100;SDS011;9177;49.156;8.142;2022-09-12T08:34:28;2.47;;;2.38;;
18100;SDS011;9177;49.156;8.142;2022-09-12T08:36:55;2.65;;;2.45;;
18100;SDS011;9177;49.156;8.142;2022-09-12T08:39:22;2.90;;;2.70;;
18100;SDS011;9177;49.156;8.142;2022-09-12T08:41:54;3.25;;;2.88;;
18100;SDS011;9177;49.156;8.142;2022-09-12T08:44:30;2.90;;;2.70;;
18100;SDS011;9177;49.156;8.142;2022-09-12T08:47:18;2.65;;;2.45;;
18100;SDS011;9177;49.156;8.142;2022-09-12T08:49:52;2.95;;;2.72;;
18100;SDS011;9177;49.156;8.142;2022-09-12T08:52:28;2.70;;;2.50;;
18100;SDS011;9177;49.156;8.142;2022-09-12T08:54:56;2.58;;;2.38;;
18100;SDS011;9177;49.156;8.142;2022-09-12T08:57:23;2.58;;;2.38;;
18100;SDS011;9177;49.156;8.142;2022-09-12T08:59:52;3.25;;;2.47;;
18100;SDS011;9177;49.156;8.142;2022-09-12T09:02:24;2.58;;;2.40;;
18100;SDS011;9177;49.156;8.142;2022-09-12T09:05:11;2.70;;;2.50;;
18100;SDS011;9177;49.156;8.142;2022-09-12T09:10:45;2.70;;;2.50;;
18100;SDS011;9177;49.156;8.142;2022-09-12T09:13:26;2.38;;;2.22;;
18100;SDS011;9177;49.156;8.142;2022-09-12T09:16:22;3.20;;;2.60;;
18100;SDS011;9177;49.156;8.142;2022-09-12T09:18:54;2.67;;;2.47;;
18100;SDS011;9177;49.156;8.142;2022-09-12T09:21:27;2.47;;;2.28;;
18100;SDS011;9177;49.156;8.142;2022-09-12T09:24:01;2.70;;;2.50;;
18100;SDS011;9177;49.156;8.142;2022-09-12T09:26:34;2.83;;;2.63;;
18100;SDS011;9177;49.156;8.142;2022-09-12T09:29:13;2.80;;;2.60;;
18100;SDS011;9177;49.156;8.142;2022-09-12T09:31:45;2.65;;;2.45;;
18100;SDS011;9177;49.156;8.142;2022-09-12T09:34:18;2.92;;;2.47;;
18100;SDS011;9177;49.156;8.142;2022-09-12T09:36:49;2.90;;;2.70;;
18100;SDS011;9177;49.156;8.142;2022-09-12T09:42:11;2.70;;;2.50;;
18100;SDS011;9177;49.156;8.142;2022-09-12T09:44:46;2.40;;;2.28;;
18100;SDS011;9177;49.156;8.142;2022-09-12T09:47:15;2.70;;;2.50;;
18100;SDS011;9177;49.156;8.142;2022-09-12T09:49:43;2.95;;;2.75;;
18100;SDS011;9177;49.156;8.142;2022-09-12T09:52:10;2.80;;;2.60;;
18100;SDS011;9177;49.156;8.142;2022-09-12T09:54:43;3.15;;;2.75;;
18100;SDS011;9177;49.156;8.142;2022-09-12T10:00:24;3.00;;;2.72;;
18100;SDS011;9177;49.156;8.142;2022-09-12T10:05:53;3.38;;;2.50;;
18100;SDS011;9177;49.156;8.142;2022-09-12T10:08:24;2.72;;;2.53;;
18100;SDS011;9177;49.156;8.142;2022-09-12T10:10:54;2.67;;;2.47;;
18100;SDS011;9177;49.156;8.142;2022-09-12T10:13:25;2.88;;;2.67;;
18100;SDS011;9177;49.156;8.142;2022-09-12T10:16:06;2.60;;;2.47;;
18100;SDS011;9177;49.156;8.142;2022-09-12T10:18:45;2.65;;;2.45;;
18100;SDS011;9177;49.156;8.142;2022-09-12T10:24:02;2.55;;;2.30;;
18100;SDS011;9177;49.156;8.142;2022-09-12T10:26:34;2.38;;;2.28;;
18100;SDS011;9177;49.156;8.142;2022-09-12T10:29:13;2.92;;;2.72;;
18100;SDS011;9177;49.156;8.142;2022-09-12T10:31:43;2.72;;;2.53;;
18100;SDS011;9177;49.156;8.142;2022-09-12T10:34:20;2.50;;;2.30;;
18100;SDS011;9177;49.156;8.142;2022-09-12T10:36:51;2.80;;;2.60;;
18100;SDS011;9177;49.156;8.142;2022-09-12T10:39:23;2.75;;;2.55;;
18100;SDS011;9177;49.156;8.142;2022-09-12T10:41:51;3.03;;;2.83;;
18100;SDS011;9177;49.156;8.142;2022-09-12T10:44:23;3.08;;;2.88;;
18100;SDS011;9177;49.156;8.142;2022-09-12T10:46:52;2.80;;;2.60;;
18100;SDS011;9177;49.156;8.142;2022-09-12T10:49:21;3.00;;;2.80;;
18100;SDS011;9177;49.156;8.142;2022-09-12T10:51:53;3.05;;;2.80;;
18100;SDS011;9177;49.156;8.142;2022-09-12T10:54:24;2.72;;;2.53;;
18100;SDS011;9177;49.156;8.142;2022-09-12T10:56:59;2.90;;;2.70;;
18100;SDS011;9177;49.156;8.142;2022-09-12T10:59:55;2.80;;;2.60;;
18100;SDS011;9177;49.156;8.142;2022-09-12T11:02:34;2.88;;;2.60;;
18100;SDS011;9177;49.156;8.142;2022-09-12T11:05:16;3.08;;;2.83;;
18100;SDS011;9177;49.156;8.142;2022-09-12T11:07:51;2.70;;;2.50;;
18100;SDS011;9177;49.156;8.142;2022-09-12T11:10:27;2.42;;;2.33;;
18100;SDS011;9177;49.156;8.142;2022-09-12T11:13:03;2.67;;;2.47;;
18100;SDS011;9177;49.156;8.142;2022-09-12T11:15:43;2.83;;;2.63;;
18100;SDS011;9177;49.156;8.142;2022-09-12T11:18:25;2.78;;;2.58;;
18100;SDS011;9177;49.156;8.142;2022-09-12T11:21:13;2.53;;;2.33;;
18100;SDS011;9177;49.156;8.142;2022-09-12T11:26:49;2.53;;;2.33;;
18100;SDS011;9177;49.156;8.142;2022-09-12T11:29:29;2.25;;;2.13;;
18100;SDS011;9177;49.156;8.142;2022-09-12T11:35:08;2.60;;;2.40;;
18100;SDS011;9177;49.156;8.142;2022-09-12T11:37:58;2.55;;;2.40;;
18100;SDS011;9177;49.156;8.142;2022-09-12T11:40:37;3.03;;;2.83;;
18100;SDS011;9177;49.156;8.142;2022-09-12T11:43:15;2.38;;;2.25;;
18100;SDS011;9177;49.156;8.142;2022-09-12T11:45:49;2.50;;;2.30;;
18100;SDS011;9177;49.156;8.142;2022-09-12T11:48:18;3.10;;;2.60;;
18100;SDS011;9177;49.156;8.142;2022-09-12T11:50:57;2.53;;;2.33;;
18100;SDS011;9177;49.156;8.142;2022-09-12T11:53:29;2.42;;;2.33;;
18100;SDS011;9177;49.156;8.142;2022-09-12T11:56:03;2.90;;;2.63;;
18100;SDS011;9177;49.156;8.142;2022-09-12T11:58:33;3.10;;;2.67;;
18100;SDS011;9177;49.156;8.142;2022-09-12T12:01:09;2.70;;;2.50;;
18100;SDS011;9177;49.156;8.142;2022-09-12T12:03:39;2.60;;;2.40;;
18100;SDS011;9177;49.156;8.142;2022-09-12T12:06:10;3.05;;;2.83;;
18100;SDS011;9177;49.156;8.142;2022-09-12T12:08:42;2.50;;;2.30;;
18100;SDS011;9177;49.156;8.142;2022-09-12T12:11:11;2.67;;;2.47;;
18100;SDS011;9177;49.156;8.142;2022-09-12T12:13:40;2.13;;;2.03;;
18100;SDS011;9177;49.156;8.142;2022-09-12T12:16:13;2.55;;;2.45;;
18100;SDS011;9177;49.156;8.142;2022-09-12T12:18:52;2.40;;;2.20;;
18100;SDS011;9177;49.156;8.142;2022-09-12T12:21:28;2.22;;;2.10;;
18100;SDS011;9177;49.156;8.142;2022-09-12T12:24:08;2.38;;;2.17;;
18100;SDS011;9177;49.156;8.142;2022-09-12T12:26:41;2.58;;;2.22;;
18100;SDS011;9177;49.156;8.142;2022-09-12T12:29:10;2.58;;;2.38;;
18100;SDS011;9177;49.156;8.142;2022-09-12T12:34:39;3.17;;;2.88;;
18100;SDS011;9177;49.156;8.142;2022-09-12T12:40:19;5.10;;;3.00;;
18100;SDS011;9177;49.156;8.142;2022-09-12T12:51:34;4.75;;;3.15;;
18100;SDS011;9177;49.156;8.142;2022-09-12T12:54:06;3.92;;;2.85;;
18100;SDS011;9177;49.156;8.142;2022-09-12T12:57:01;6.22;;;2.85;;
18100;SDS011;9177;49.156;8.142;2022-09-12T12:59:44;5.30;;;2.80;;
18100;SDS011;9177;49.156;8.142;2022-09-12T13:02:17;5.85;;;2.97;;
18100;SDS011;9177;49.156;8.142;2022-09-12T13:04:51;5.50;;;2.95;;
18100;SDS011;9177;49.156;8.142;2022-09-12T13:07:26;3.72;;;2.90;;
18100;SDS011;9177;49.156;8.142;2022-09-12T13:09:56;8.10;;;3.15;;
18100;SDS011;9177;49.156;8.142;2022-09-12T13:12:27;5.18;;;3.15;;
18100;SDS011;9177;49.156;8.142;2022-09-12T13:14:57;6.28;;;2.97;;
18100;SDS011;9177;49.156;8.142;2022-09-12T13:17:26;6.05;;;2.70;;
18100;SDS011;9177;49.156;8.142;2022-09-12T13:20:05;4.85;;;3.10;;
18100;SDS011;9177;49.156;8.142;2022-09-12T13:22:44;5.82;;;2.97;;
18100;SDS011;9177;49.156;8.142;2022-09-12T13:25:21;4.75;;;2.80;;
18100;SDS011;9177;49.156;8.142;2022-09-12T13:30:42;6.90;;;3.25;;
18100;SDS011;9177;49.156;8.142;2022-09-12T13:33:17;7.20;;;3.22;;
18100;SDS011;9177;49.156;8.142;2022-09-12T13:38:45;6.72;;;3.30;;
18100;SDS011;9177;49.156;8.142;2022-09-12T13:41:36;5.85;;;3.00;;
18100;SDS011;9177;49.156;8.142;2022-09-12T13:44:18;6.88;;;3.13;;
18100;SDS011;9177;49.156;8.142;2022-09-12T13:46:48;6.75;;;2.80;;
18100;SDS011;9177;49.156;8.142;2022-09-12T13:49:18;4.20;;;2.75;;
18100;SDS011;9177;49.156;8.142;2022-09-12T13:51:52;5.28;;;2.47;;
18100;SDS011;9177;49.156;8.142;2022-09-12T13:54:25;6.03;;;2.67;;
18100;SDS011;9177;49.156;8.142;2022-09-12T13:56:52;5.93;;;3.28;;
18100;SDS011;9177;49.156;8.142;2022-09-12T13:59:20;4.07;;;3.10;;
18100;SDS011;9177;49.156;8.142;2022-09-12T14:01:47;8.13;;;3.08;;
18100;SDS011;9177;49.156;8.142;2022-09-12T14:04:16;7.72;;;3.30;;
18100;SDS011;9177;49.156;8.142;2022-09-12T14:07:02;9.65;;;3.75;;
18100;SDS011;9177;49.156;8.142;2022-09-12T14:09:38;6.80;;;3.67;;
18100;SDS011;9177;49.156;8.142;2022-09-12T14:12:10;10.30;;;3.30;;
18100;SDS011;9177;49.156;8.142;2022-09-12T14:14:45;5.95;;;3.00;;
18100;SDS011;9177;49.156;8.142;2022-09-12T14:17:16;10.15;;;4.03;;
18100;SDS011;9177;49.156;8.142;2022-09-12T14:19:47;7.65;;;3.13;;
18100;SDS011;9177;49.156;8.142;2022-09-12T14:22:14;6.40;;;3.13;;
18100;SDS011;9177;49.156;8.142;2022-09-12T14:24:42;4.78;;;3.00;;
18100;SDS011;9177;49.156;8.142;2022-09-12T14:27:16;7.47;;;3.10;;
18100;SDS011;9177;49.156;8.142;2022-09-12T14:29:44;7.22;;;3.15;;
18100;SDS011;9177;49.156;8.142;2022-09-12T14:32:17;7.85;;;3.15;;
18100;SDS011;9177;49.156;8.142;2022-09-12T14:35:05;8.00;;;3.63;;
18100;SDS011;9177;49.156;8.142;2022-09-12T14:37:42;6.55;;;3.10;;
18100;SDS011;9177;49.156;8.142;2022-09-12T14:40:14;6.35;;;3.22;;
18100;SDS011;9177;49.156;8.142;2022-09-12T14:42:43;5.30;;;2.88;;
18100;SDS011;9177;49.156;8.142;2022-09-12T14:45:14;6.32;;;2.80;;
18100;SDS011;9177;49.156;8.142;2022-09-12T14:47:46;6.07;;;3.00;;
18100;SDS011;9177;49.156;8.142;2022-09-12T14:50:16;6.15;;;3.53;;
18100;SDS011;9177;49.156;8.142;2022-09-12T14:53:01;7.82;;;2.90;;
18100;SDS011;9177;49.156;8.142;2022-09-12T14:55:30;5.88;;;3.05;;
18100;SDS011;9177;49.156;8.142;2022-09-12T14:58:15;5.53;;;2.78;;
18100;SDS011;9177;49.156;8.142;2022-09-12T15:00:57;5.05;;;3.10;;
18100;SDS011;9177;49.156;8.142;2022-09-12T15:03:28;6.22;;;3.10;;
18100;SDS011;9177;49.156;8.142;2022-09-12T15:05:59;5.03;;;3.20;;
18100;SDS011;9177;49.156;8.142;2022-09-12T15:08:28;6.57;;;3.17;;
18100;SDS011;9177;49.156;8.142;2022-09-12T15:10:56;6.63;;;3.00;;
18100;SDS011;9177;49.156;8.142;2022-09-12T15:13:24;6.32;;;3.30;;
18100;SDS011;9177;49.156;8.142;2022-09-12T15:15:55;7.70;;;2.85;;
18100;SDS011;9177;49.156;8.142;2022-09-12T15:18:23;4.25;;;2.75;;
18100;SDS011;9177;49.156;8.142;2022-09-12T15:20:53;4.50;;;2.78;;
18100;SDS011;9177;49.156;8.142;2022-09-12T15:23:27;6.95;;;2.63;;
18100;SDS011;9177;49.156;8.142;2022-09-12T15:25:57;4.93;;;3.03;;
18100;SDS011;9177;49.156;8.142;2022-09-12T15:28:24;3.53;;;2.67;;
18100;SDS011;9177;49.156;8.142;2022-09-12T15:30:54;5.28;;;2.65;;
18100;SDS011;9177;49.156;8.142;2022-09-12T15:33:23;5.30;;;3.13;;
18100;SDS011;9177;49.156;8.142;2022-09-12T15:35:51;5.80;;;3.00;;
18100;SDS011;9177;49.156;8.142;2022-09-12T15:38:19;5.47;;;2.90;;
18100;SDS011;9177;49.156;8.142;2022-09-12T15:40:49;6.35;;;2.78;;
18100;SDS011;9177;49.156;8.142;2022-09-12T15:43:18;6.60;;;2.50;;
18100;SDS011;9177;49.156;8.142;2022-09-12T15:45:45;4.60;;;2.47;;
18100;SDS011;9177;49.156;8.142;2022-09-12T15:48:13;3.58;;;2.28;;
18100;SDS011;9177;49.156;8.142;2022-09-12T15:50:40;3.70;;;2.95;;
18100;SDS011;9177;49.156;8.142;2022-09-12T15:53:10;3.33;;;2.30;;
18100;SDS011;9177;49.156;8.142;2022-09-12T15:55:41;2.83;;;2.50;;
18100;SDS011;9177;49.156;8.142;2022-09-12T15:58:07;5.00;;;2.72;;
18100;SDS011;9177;49.156;8.142;2022-09-12T16:00:35;5.85;;;2.67;;
18100;SDS011;9177;49.156;8.142;2022-09-12T16:03:01;4.32;;;2.78;;
18100;SDS011;9177;49.156;8.142;2022-09-12T16:05:29;3.72;;;2.60;;
18100;SDS011;9177;49.156;8.142;2022-09-12T16:07:56;2.90;;;2.15;;
18100;SDS011;9177;49.156;8.142;2022-09-12T16:10:25;2.75;;;2.40;;